Home > Products > Valid Products > MTR

000
SAUS43 KEAX 291254
MTRCDJ
METAR KCDJ 291252Z AUTO 20008KT 04/00 A3003 RMK AO1 SLP176 T00390000





000
SAUS43 KEAX 291254
MTRCDJ
METAR KCDJ 291252Z AUTO 20008KT 04/00 A3003 RMK AO1 SLP176 T00390000





000
SAUS43 KEAX 291153
MTRCDJ
METAR KCDJ 291152Z AUTO 19005KT 04/00 A3002 RMK AO1 SLP173 T00390000
10050 20033 53004





000
SAUS43 KEAX 291153
MTRCDJ
METAR KCDJ 291152Z AUTO 19005KT 04/00 A3002 RMK AO1 SLP173 T00390000
10050 20033 53004





000
SAUS43 KEAX 291053
MTRCDJ
METAR KCDJ 291052Z AUTO 15006KT 04/00 A3001 RMK AO1 SLP169 T00390000





000
SAUS43 KEAX 290953
MTRCDJ
METAR KCDJ 290952Z AUTO 17011G16KT 03/M01 A3001 RMK AO1 SLP169
T00331006





000
SAUS43 KEAX 290853
MTRCDJ
METAR KCDJ 290852Z AUTO 16011KT 03/M01 A3001 RMK AO1 SLP169
T00331006 56033





000
SAUS43 KEAX 290853
MTRCDJ
METAR KCDJ 290852Z AUTO 16011KT 03/M01 A3001 RMK AO1 SLP169
T00331006 56033





000
SAUS43 KEAX 290753
MTRCDJ
METAR KCDJ 290752Z AUTO 16009KT 04/M01 A3004 RMK AO1 SLP180
T00391006





000
SAUS43 KEAX 290753
MTRCDJ
METAR KCDJ 290752Z AUTO 16009KT 04/M01 A3004 RMK AO1 SLP180
T00391006





000
SAUS43 KEAX 290653
MTRCDJ
METAR KCDJ 290652Z AUTO 15009KT 04/M01 A3007 RMK AO1 SLP192
T00391006





000
SAUS43 KEAX 290653
MTRCDJ
METAR KCDJ 290652Z AUTO 15009KT 04/M01 A3007 RMK AO1 SLP192
T00391006





000
SAUS43 KEAX 290553
MTRCDJ
METAR KCDJ 290552Z AUTO 16009KT 05/M01 A3011 RMK AO1 SLP204
T00501006 10089 20044 401000006 58017





000
SAUS43 KEAX 290553
MTRCDJ
METAR KCDJ 290552Z AUTO 16009KT 05/M01 A3011 RMK AO1 SLP204
T00501006 10089 20044 401000006 58017





000
SAUS43 KEAX 290453
MTRCDJ
METAR KCDJ 290452Z AUTO 15009KT 05/M01 A3013 RMK AO1 SLP212
T00501011





000
SAUS43 KEAX 290453
MTRCDJ
METAR KCDJ 290452Z AUTO 15009KT 05/M01 A3013 RMK AO1 SLP212
T00501011





000
SAUS43 KEAX 290353
MTRCDJ
METAR KCDJ 290352Z AUTO 14008KT 06/M01 A3015 RMK AO1 SLP219
T00561011





000
SAUS43 KEAX 290353
MTRCDJ
METAR KCDJ 290352Z AUTO 14008KT 06/M01 A3015 RMK AO1 SLP219
T00561011





000
SAUS43 KEAX 290253
MTRCDJ
METAR KCDJ 290252Z AUTO 14007KT 06/M01 A3016 RMK AO1 SLP223
T00611011 56002





000
SAUS43 KEAX 290253
MTRCDJ
METAR KCDJ 290252Z AUTO 14007KT 06/M01 A3016 RMK AO1 SLP223
T00611011 56002





000
SAUS43 KEAX 290153
MTRCDJ
METAR KCDJ 290152Z AUTO 13006KT 07/M01 A3016 RMK AO1 SLP224
T00671011





000
SAUS43 KEAX 290153
MTRCDJ
METAR KCDJ 290152Z AUTO 13006KT 07/M01 A3016 RMK AO1 SLP224
T00671011





000
SAUS43 KEAX 290053
MTRCDJ
METAR KCDJ 290052Z AUTO 13005KT 07/M01 A3016 RMK AO1 SLP223
T00721011





000
SAUS43 KEAX 290053
MTRCDJ
METAR KCDJ 290052Z AUTO 13005KT 07/M01 A3016 RMK AO1 SLP223
T00721011





000
SAUS43 KEAX 282353
MTRCDJ
METAR KCDJ 282352Z AUTO 13009KT 09/M01 A3017 RMK AO1 SLP224
T00891011 10100 20061 55007





000
SAUS43 KEAX 282353
MTRCDJ
METAR KCDJ 282352Z AUTO 13009KT 09/M01 A3017 RMK AO1 SLP224
T00891011 10100 20061 55007





000
SAUS43 KEAX 282253
MTRCDJ
METAR KCDJ 282252Z AUTO 13009KT 09/M01 A3017 RMK AO1 SLP224
T00941006





000
SAUS43 KEAX 282253
MTRCDJ
METAR KCDJ 282252Z AUTO 13009KT 09/M01 A3017 RMK AO1 SLP224
T00941006





000
SAUS43 KEAX 282153
MTRCDJ
METAR KCDJ 282152Z AUTO 16006KT 10/M01 A3017 RMK AO1 SLP224
T01001006





000
SAUS43 KEAX 282153
MTRCDJ
METAR KCDJ 282152Z AUTO 16006KT 10/M01 A3017 RMK AO1 SLP224
T01001006





000
SAUS43 KEAX 282053
MTRCDJ
METAR KCDJ 282052Z AUTO 11007KT 09/00 A3019 RMK AO1 SLP231 T00940000
56018





000
SAUS43 KEAX 282053
MTRCDJ
METAR KCDJ 282052Z AUTO 11007KT 09/00 A3019 RMK AO1 SLP231 T00940000
56018





000
SAUS43 KEAX 281953
MTRCDJ
METAR KCDJ 281952Z AUTO 11011G16KT 08/M01 A3020 RMK AO1 SLP235
T00831006





000
SAUS43 KEAX 281953
MTRCDJ
METAR KCDJ 281952Z AUTO 11011G16KT 08/M01 A3020 RMK AO1 SLP235
T00831006





000
SAUS43 KEAX 281853
MTRCDJ
METAR KCDJ 281852Z AUTO 12010KT 07/M01 A3023 RMK AO1 SLP244
T00721011





000
SAUS43 KEAX 281853
MTRCDJ
METAR KCDJ 281852Z AUTO 12010KT 07/M01 A3023 RMK AO1 SLP244
T00721011





000
SAUS43 KEAX 281753
MTRCDJ
METAR KCDJ 281752Z AUTO 13012G20KT 07/M01 A3025 RMK AO1 SLP250
T00671011 10067 20006 58003





000
SAUS43 KEAX 281753
MTRCDJ
METAR KCDJ 281752Z AUTO 13012G20KT 07/M01 A3025 RMK AO1 SLP250
T00671011 10067 20006 58003





000
SAUS43 KEAX 281653
MTRCDJ
METAR KCDJ 281652Z AUTO 12011KT 05/M02 A3025 RMK AO1 SLP254
T00501017





000
SAUS43 KEAX 281653
MTRCDJ
METAR KCDJ 281652Z AUTO 12011KT 05/M02 A3025 RMK AO1 SLP254
T00501017





000
SAUS43 KEAX 281553
MTRCDJ
METAR KCDJ 281552Z AUTO 12008KT 04/M02 A3026 RMK AO1 SLP257
T00391017





000
SAUS43 KEAX 281453
MTRCDJ
METAR KCDJ 281452Z AUTO 13010KT 03/M02 A3025 RMK AO1 SLP254
T00281017 53016





000
SAUS43 KEAX 281453
MTRCDJ
METAR KCDJ 281452Z AUTO 13010KT 03/M02 A3025 RMK AO1 SLP254
T00281017 53016





000
SAUS43 KEAX 281353
MTRCDJ
METAR KCDJ 281352Z AUTO 12008KT 02/M02 A3023 RMK AO1 SLP247
T00171017





000
SAUS43 KEAX 281353
MTRCDJ
METAR KCDJ 281352Z AUTO 12008KT 02/M02 A3023 RMK AO1 SLP247
T00171017





000
SAUS43 KEAX 281254
MTRCDJ
METAR KCDJ 281252Z AUTO 11007KT 01/M02 A3023 RMK AO1 SLP247
T00061022





000
SAUS43 KEAX 281254
MTRCDJ
METAR KCDJ 281252Z AUTO 11007KT 01/M02 A3023 RMK AO1 SLP247
T00061022





000
SAUS43 KEAX 281153
MTRCDJ
METAR KCDJ 281152Z AUTO 11006KT 01/M03 A3021 RMK AO1 SLP239
T00061028 10039 20006 53019





000
SAUS43 KEAX 281153
MTRCDJ
METAR KCDJ 281152Z AUTO 11006KT 01/M03 A3021 RMK AO1 SLP239
T00061028 10039 20006 53019





000
SAUS43 KEAX 281053
MTRCDJ
METAR KCDJ 281052Z AUTO 10007KT 02/M04 A3018 RMK AO1 SLP230
T00171039





000
SAUS43 KEAX 281053
MTRCDJ
METAR KCDJ 281052Z AUTO 10007KT 02/M04 A3018 RMK AO1 SLP230
T00171039





000
SAUS43 KEAX 280953
MTRCDJ
METAR KCDJ 280952Z AUTO 10003KT 03/M03 A3016 RMK AO1 SLP223
T00281033





000
SAUS43 KEAX 280853
MTRCDJ
METAR KCDJ 280852Z AUTO 00000KT 03/M04 A3015 RMK AO1 SLP219
T00281039 55005





000
SAUS43 KEAX 280753
MTRCDJ
METAR KCDJ 280752Z AUTO 23003KT 03/M06 A3015 RMK AO1 SLP217
T00331056





000
SAUS43 KEAX 280653
MTRCDJ
METAR KCDJ 280652Z AUTO VRB04KT 03/M05 A3015 RMK AO1 SLP220
T00331050





000
SAUS43 KEAX 280553
MTRCDJ
METAR KCDJ 280552Z AUTO 00000KT 04/M06 A3016 RMK AO1 SLP224
T00391056 10056 20039 400721017 58006





000
SAUS43 KEAX 280553
MTRCDJ
METAR KCDJ 280552Z AUTO 00000KT 04/M06 A3016 RMK AO1 SLP224
T00391056 10056 20039 400721017 58006





000
SAUS43 KEAX 280453
MTRCDJ
METAR KCDJ 280452Z AUTO 00000KT 04/M05 A3017 RMK AO1 SLP227
T00391050





000
SAUS43 KEAX 280353
MTRCDJ
METAR KCDJ 280352Z AUTO 00000KT 04/M04 A3018 RMK AO1 SLP231
T00391044





000
SAUS43 KEAX 280353
MTRCDJ
METAR KCDJ 280352Z AUTO 00000KT 04/M04 A3018 RMK AO1 SLP231
T00391044





000
SAUS43 KEAX 280253
MTRCDJ
METAR KCDJ 280252Z AUTO 00000KT 04/M07 A3018 RMK AO1 SLP231
T00441067 51004





000
SAUS43 KEAX 280253
MTRCDJ
METAR KCDJ 280252Z AUTO 00000KT 04/M07 A3018 RMK AO1 SLP231
T00441067 51004





000
SAUS43 KEAX 280153
MTRCDJ
METAR KCDJ 280152Z AUTO 00000KT 05/M07 A3018 RMK AO1 SLP231
T00501072





000
SAUS43 KEAX 280053
MTRCDJ
METAR KCDJ 280052Z AUTO 00000KT 05/M06 A3017 RMK AO1 SLP229
T00501056





000
SAUS43 KEAX 272353
MTRCDJ
METAR KCDJ 272352Z AUTO 00000KT 06/M08 A3017 RMK AO1 SLP228
T00561083 10072 20044 55004





000
SAUS43 KEAX 272253
MTRCDJ
METAR KCDJ 272252Z AUTO 33003KT 06/M08 A3016 RMK AO1 SLP223
T00611083





000
SAUS43 KEAX 272253
MTRCDJ
METAR KCDJ 272252Z AUTO 33003KT 06/M08 A3016 RMK AO1 SLP223
T00611083





000
SAUS43 KEAX 272153
MTRCDJ
METAR KCDJ 272152Z AUTO VRB03KT 06/M08 A3016 RMK AO1 SLP224
T00611083





000
SAUS43 KEAX 272053
MTRCDJ
METAR KCDJ 272052Z AUTO 00000KT 06/M08 A3018 RMK AO1 SLP229
T00611078 56025





000
SAUS43 KEAX 272053
MTRCDJ
METAR KCDJ 272052Z AUTO 00000KT 06/M08 A3018 RMK AO1 SLP229
T00611078 56025





000
SAUS43 KEAX 271953
MTRCDJ
METAR KCDJ 271952Z AUTO 02004KT 06/M07 A3020 RMK AO1 SLP236
T00611072





000
SAUS43 KEAX 271953
MTRCDJ
METAR KCDJ 271952Z AUTO 02004KT 06/M07 A3020 RMK AO1 SLP236
T00611072





000
SAUS43 KEAX 271853
MTRCDJ
METAR KCDJ 271852Z AUTO 02005KT 06/M07 A3023 RMK AO1 SLP247
T00561072





000
SAUS43 KEAX 271853
MTRCDJ
METAR KCDJ 271852Z AUTO 02005KT 06/M07 A3023 RMK AO1 SLP247
T00561072





000
SAUS43 KEAX 271753
MTRCDJ
METAR KCDJ 271752Z AUTO 34009KT 04/M07 A3026 RMK AO1 SLP255
T00441072 10050 21017 58003





000
SAUS43 KEAX 271753
MTRCDJ
METAR KCDJ 271752Z AUTO 34009KT 04/M07 A3026 RMK AO1 SLP255
T00441072 10050 21017 58003





000
SAUS43 KEAX 271653
MTRCDJ
METAR KCDJ 271652Z AUTO 33007KT 03/M07 A3027 RMK AO1 SLP259
T00331067





000
SAUS43 KEAX 271653
MTRCDJ
METAR KCDJ 271652Z AUTO 33007KT 03/M07 A3027 RMK AO1 SLP259
T00331067





000
SAUS43 KEAX 271553
MTRCDJ
METAR KCDJ 271552Z AUTO 35009KT 02/M07 A3027 RMK AO1 SLP262
T00221072





000
SAUS43 KEAX 271453
MTRCDJ
METAR KCDJ 271452Z AUTO 35009G16KT 02/M06 A3027 RMK AO1 SLP259
T00171061 51016





000
SAUS43 KEAX 271353
MTRCDJ
METAR KCDJ 271352Z AUTO 35007KT 320V030 01/M06 A3026 RMK AO1 SLP256
T00061056





000
SAUS43 KEAX 271253
MTRCDJ
METAR KCDJ 271252Z AUTO 33006KT M01/M06 A3025 RMK AO1 SLP254
T10111056 $





000
SAUS43 KEAX 271153
MTRCDJ
METAR KCDJ 271152Z AUTO 33005KT M01/M05 A3022 RMK AO1 SLP242
T10111050 10033 21011 53014 $





000
SAUS43 KEAX 271153
MTRCDJ
METAR KCDJ 271152Z AUTO 33005KT M01/M05 A3022 RMK AO1 SLP242
T10111050 10033 21011 53014 $





000
SAUS43 KEAX 271053
MTRCDJ
METAR KCDJ 271052Z AUTO 35007KT M01/M04 A3020 RMK AO1 SLP235
T10061044 $





000
SAUS43 KEAX 271053
MTRCDJ
METAR KCDJ 271052Z AUTO 35007KT M01/M04 A3020 RMK AO1 SLP235
T10061044 $





000
SAUS43 KEAX 270953
MTRCDJ
METAR KCDJ 270952Z AUTO 36006KT 01/M04 A3018 RMK AO1 SLP228
T00111039 $





000
SAUS43 KEAX 270853
MTRCDJ
METAR KCDJ 270852Z AUTO 36006KT 02/M02 A3018 RMK AO1 SLP225
T00221017 53003





000
SAUS43 KEAX 270753
MTRCDJ
METAR KCDJ 270752Z AUTO 01006KT 02/01 A3017 RMK AO1 SLP223 T00220006





000
SAUS43 KEAX 270653
MTRCDJ
METAR KCDJ 270652Z AUTO 36004KT 03/00 A3017 RMK AO1 SLP223 T00280000





000
SAUS43 KEAX 270653
MTRCDJ
METAR KCDJ 270652Z AUTO 36004KT 03/00 A3017 RMK AO1 SLP223 T00280000





000
SAUS43 KEAX 270553
MTRCDJ
METAR KCDJ 270552Z AUTO 36007KT 03/00 A3017 RMK AO1 SLP223 T00330000
10094 20033 401110000 51008





000
SAUS43 KEAX 270553
MTRCDJ
METAR KCDJ 270552Z AUTO 36007KT 03/00 A3017 RMK AO1 SLP223 T00330000
10094 20033 401110000 51008





000
SAUS43 KEAX 270453
MTRCDJ
METAR KCDJ 270452Z AUTO 34005KT 03/00 A3016 RMK AO1 SLP223 T00330000





000
SAUS43 KEAX 270353
MTRCDJ
METAR KCDJ 270352Z AUTO 35011G19KT 04/M01 A3016 RMK AO1 SLP221
T00391011





000
SAUS43 KEAX 270353
MTRCDJ
METAR KCDJ 270352Z AUTO 35011G19KT 04/M01 A3016 RMK AO1 SLP221
T00391011





000
SAUS43 KEAX 270253
MTRCDJ
METAR KCDJ 270252Z AUTO 36005KT 06/M01 A3014 RMK AO1 SLP215
T00611006 53023





000
SAUS43 KEAX 270253
MTRCDJ
METAR KCDJ 270252Z AUTO 36005KT 06/M01 A3014 RMK AO1 SLP215
T00611006 53023





000
SAUS43 KEAX 270153
MTRCDJ
METAR KCDJ 270152Z AUTO 36009G20KT 08/M03 A3011 RMK AO1 SLP205
T00831028





000
SAUS43 KEAX 270153
MTRCDJ
METAR KCDJ 270152Z AUTO 36009G20KT 08/M03 A3011 RMK AO1 SLP205
T00831028





000
SAUS43 KEAX 270053
MTRCDJ
METAR KCDJ 270052Z AUTO 00000KT 08/M02 A3009 RMK AO1 SLP196
T00831017





000
SAUS43 KEAX 270053
MTRCDJ
METAR KCDJ 270052Z AUTO 00000KT 08/M02 A3009 RMK AO1 SLP196
T00831017





000
SAUS43 KEAX 262353
MTRCDJ
METAR KCDJ 262352Z AUTO 31007KT 280V360 09/M03 A3007 RMK AO1 SLP191
T00941028 10111 20078 56008





000
SAUS43 KEAX 262353
MTRCDJ
METAR KCDJ 262352Z AUTO 31007KT 280V360 09/M03 A3007 RMK AO1 SLP191
T00941028 10111 20078 56008





000
SAUS43 KEAX 262253
MTRCDJ
METAR KCDJ 262252Z AUTO 31007KT 11/M03 A3008 RMK AO1 SLP194
T01061033





000
SAUS43 KEAX 262253
MTRCDJ
METAR KCDJ 262252Z AUTO 31007KT 11/M03 A3008 RMK AO1 SLP194
T01061033





000
SAUS43 KEAX 262153
MTRCDJ
METAR KCDJ 262152Z AUTO 31010G15KT 11/M03 A3009 RMK AO1 SLP194
T01061028





000
SAUS43 KEAX 262053
MTRCDJ
METAR KCDJ 262052Z AUTO 31010G16KT 11/M02 A3010 RMK AO1 SLP198
T01061022 58021





000
SAUS43 KEAX 261953
MTRCDJ
METAR KCDJ 261952Z AUTO 30010G17KT 09/M02 A3012 RMK AO1 SLP205
T00941022





000
SAUS43 KEAX 261953
MTRCDJ
METAR KCDJ 261952Z AUTO 30010G17KT 09/M02 A3012 RMK AO1 SLP205
T00941022





000
SAUS43 KEAX 261853
MTRCDJ
METAR KCDJ 261852Z AUTO 32007KT 290V350 09/M02 A3014 RMK AO1 SLP214
T00891017





000
SAUS43 KEAX 261853
MTRCDJ
METAR KCDJ 261852Z AUTO 32007KT 290V350 09/M02 A3014 RMK AO1 SLP214
T00891017





000
SAUS43 KEAX 261753
MTRCDJ
METAR KCDJ 261752Z AUTO 31009G16KT 08/M02 A3016 RMK AO1 SLP219
T00781022 10083 20000 58017





000
SAUS43 KEAX 261654
MTRCDJ
METAR KCDJ 261652Z AUTO 01008G16KT 07/M02 A3018 RMK AO1 SLP226
T00721022





000
SAUS43 KEAX 261654
MTRCDJ
METAR KCDJ 261652Z AUTO 01008G16KT 07/M02 A3018 RMK AO1 SLP226
T00721022





000
SAUS43 KEAX 261553
MTRCDJ
METAR KCDJ 261552Z AUTO 01008G19KT 06/M03 A3020 RMK AO1 SLP234
T00561033





000
SAUS43 KEAX 261453
MTRCDJ
METAR KCDJ 261452Z AUTO 36008KT 04/M03 A3021 RMK AO1 SLP238
T00441033 50009





000
SAUS43 KEAX 261453
MTRCDJ
METAR KCDJ 261452Z AUTO 36008KT 04/M03 A3021 RMK AO1 SLP238
T00441033 50009





000
SAUS43 KEAX 261353
MTRCDJ
METAR KCDJ 261352Z AUTO 34005KT 03/M03 A3021 RMK AO1 SLP239
T00281033





000
SAUS43 KEAX 261353
MTRCDJ
METAR KCDJ 261352Z AUTO 34005KT 03/M03 A3021 RMK AO1 SLP239
T00281033





    US Dept of Commerce
    National Oceanic and Atmospheric Administration
    National Weather Service
    1325 East West Highway
    Silver Spring, MD 20910
    Page Author: NWS Internet Services Team
Disclaimer
Information Quality
Credits
Glossary
Privacy Policy
Freedom of Information Act (FOIA)
About Us
Career Opportunities